sensor_id;sensor_type;location;lat;lon;timestamp;pressure;altitude;pressure_sealevel;temperature;humidity
33404;BME280;19751;40.274;18.268;2023-11-21T00:00:55;100869.38;;;14.87;100.00
33404;BME280;19751;40.274;18.268;2023-11-21T00:03:20;100869.38;;;14.87;100.00
33404;BME280;19751;40.274;18.268;2023-11-21T00:05:48;100859.34;;;14.88;100.00
33404;BME280;19751;40.274;18.268;2023-11-21T00:08:14;100863.94;;;14.87;100.00
33404;BME280;19751;40.274;18.268;2023-11-21T00:10:39;100871.47;;;14.85;100.00
33404;BME280;19751;40.274;18.268;2023-11-21T00:13:05;100860.63;;;14.85;100.00
33404;BME280;19751;40.274;18.268;2023-11-21T00:15:30;100863.34;;;14.85;100.00
33404;BME280;19751;40.274;18.268;2023-11-21T00:17:56;100871.47;;;14.85;100.00
33404;BME280;19751;40.274;18.268;2023-11-21T00:20:21;100859.56;;;14.86;100.00
33404;BME280;19751;40.274;18.268;2023-11-21T00:22:47;100863.53;;;14.84;100.00
33404;BME280;19751;40.274;18.268;2023-11-21T00:25:13;100866.47;;;14.82;100.00
33404;BME280;19751;40.274;18.268;2023-11-21T00:27:41;100864.00;;;14.81;100.00
33404;BME280;19751;40.274;18.268;2023-11-21T00:30:06;100859.38;;;14.81;100.00
33404;BME280;19751;40.274;18.268;2023-11-21T00:32:35;100850.63;;;14.79;100.00
33404;BME280;19751;40.274;18.268;2023-11-21T00:35:01;100856.47;;;14.76;100.00
33404;BME280;19751;40.274;18.268;2023-11-21T00:37:26;100853.75;;;14.76;100.00
33404;BME280;19751;40.274;18.268;2023-11-21T00:39:52;100847.50;;;14.76;100.00
33404;BME280;19751;40.274;18.268;2023-11-21T00:42:17;100847.72;;;14.74;100.00
33404;BME280;19751;40.274;18.268;2023-11-21T00:44:43;100850.66;;;14.73;100.00
33404;BME280;19751;40.274;18.268;2023-11-21T00:47:08;100844.59;;;14.71;100.00
33404;BME280;19751;40.274;18.268;2023-11-21T00:49:34;100842.94;;;14.70;100.00
33404;BME280;19751;40.274;18.268;2023-11-21T00:51:59;100841.28;;;14.69;100.00
33404;BME280;19751;40.274;18.268;2023-11-21T00:54:27;100836.06;;;14.67;100.00
33404;BME280;19751;40.274;18.268;2023-11-21T00:56:53;100837.13;;;14.66;100.00
33404;BME280;19751;40.274;18.268;2023-11-21T00:59:18;100831.94;;;14.64;100.00
33404;BME280;19751;40.274;18.268;2023-11-21T01:01:44;100837.34;;;14.64;100.00
33404;BME280;19751;40.274;18.268;2023-11-21T01:04:09;100837.53;;;14.63;100.00
33404;BME280;19751;40.274;18.268;2023-11-21T01:06:36;100831.50;;;14.61;100.00
33404;BME280;19751;40.274;18.268;2023-11-21T01:09:01;100824.44;;;14.60;100.00
33404;BME280;19751;40.274;18.268;2023-11-21T01:11:33;100828.16;;;14.59;100.00
33404;BME280;19751;40.274;18.268;2023-11-21T01:14:01;100817.78;;;14.56;100.00
33404;BME280;19751;40.274;18.268;2023-11-21T01:16:28;100821.50;;;14.55;100.00
33404;BME280;19751;40.274;18.268;2023-11-21T01:18:54;100817.97;;;14.54;100.00
33404;BME280;19751;40.274;18.268;2023-11-21T01:21:20;100820.06;;;14.52;100.00
33404;BME280;19751;40.274;18.268;2023-11-21T01:23:45;100811.31;;;14.50;100.00
33404;BME280;19751;40.274;18.268;2023-11-21T01:26:11;100808.59;;;14.50;100.00
33404;BME280;19751;40.274;18.268;2023-11-21T01:28:37;100805.88;;;14.50;100.00
33404;BME280;19751;40.274;18.268;2023-11-21T01:31:02;100805.06;;;14.50;100.00
33404;BME280;19751;40.274;18.268;2023-11-21T01:33:28;100800.28;;;14.52;100.00
33404;BME280;19751;40.274;18.268;2023-11-21T01:35:53;100792.34;;;14.50;100.00
33404;BME280;19751;40.274;18.268;2023-11-21T01:38:20;100789.84;;;14.49;100.00
33404;BME280;19751;40.274;18.268;2023-11-21T01:40:45;100789.00;;;14.48;100.00
33404;BME280;19751;40.274;18.268;2023-11-21T01:43:11;100782.75;;;14.48;100.00
33404;BME280;19751;40.274;18.268;2023-11-21T01:45:37;100781.06;;;14.47;100.00
33404;BME280;19751;40.274;18.268;2023-11-21T01:48:02;100782.94;;;14.46;100.00
33404;BME280;19751;40.274;18.268;2023-11-21T01:50:29;100776.09;;;14.43;100.00
33404;BME280;19751;40.274;18.268;2023-11-21T01:52:54;100773.16;;;14.38;100.00
33404;BME280;19751;40.274;18.268;2023-11-21T01:55:20;100771.94;;;14.34;100.00
33404;BME280;19751;40.274;18.268;2023-11-21T01:57:46;100773.41;;;14.30;100.00
33404;BME280;19751;40.274;18.268;2023-11-21T02:00:13;100768.44;;;14.27;100.00
33404;BME280;19751;40.274;18.268;2023-11-21T02:02:45;100762.38;;;14.25;100.00
33404;BME280;19751;40.274;18.268;2023-11-21T02:05:13;100762.78;;;14.22;100.00
33404;BME280;19751;40.274;18.268;2023-11-21T02:07:39;100753.44;;;14.18;100.00
33404;BME280;19751;40.274;18.268;2023-11-21T02:10:08;100753.88;;;14.15;100.00
33404;BME280;19751;40.274;18.268;2023-11-21T02:12:34;100761.78;;;14.10;100.00
33404;BME280;19751;40.274;18.268;2023-11-21T02:15:05;100762.41;;;14.05;100.00
33404;BME280;19751;40.274;18.268;2023-11-21T02:17:35;100764.09;;;14.00;100.00
33404;BME280;19751;40.274;18.268;2023-11-21T02:20:01;100764.97;;;13.93;100.00
33404;BME280;19751;40.274;18.268;2023-11-21T02:22:30;100765.38;;;13.90;100.00
33404;BME280;19751;40.274;18.268;2023-11-21T02:24:58;100761.44;;;13.86;100.00
33404;BME280;19751;40.274;18.268;2023-11-21T02:27:24;100759.97;;;13.84;100.00
33404;BME280;19751;40.274;18.268;2023-11-21T02:29:49;100766.22;;;13.84;100.00
33404;BME280;19751;40.274;18.268;2023-11-21T02:32:15;100763.09;;;13.87;100.00
33404;BME280;19751;40.274;18.268;2023-11-21T02:34:44;100755.59;;;13.89;100.00
33404;BME280;19751;40.274;18.268;2023-11-21T02:37:10;100756.00;;;13.86;100.00
33404;BME280;19751;40.274;18.268;2023-11-21T02:39:35;100747.06;;;13.86;100.00
33404;BME280;19751;40.274;18.268;2023-11-21T02:42:01;100746.22;;;13.85;100.00
33404;BME280;19751;40.274;18.268;2023-11-21T02:44:26;100750.19;;;13.83;100.00
33404;BME280;19751;40.274;18.268;2023-11-21T02:46:52;100747.69;;;13.81;100.00
33404;BME280;19751;40.274;18.268;2023-11-21T02:49:17;100747.69;;;13.81;100.00
33404;BME280;19751;40.274;18.268;2023-11-21T02:51:43;100747.25;;;13.84;100.00
33404;BME280;19751;40.274;18.268;2023-11-21T02:54:08;100744.13;;;13.87;100.00
33404;BME280;19751;40.274;18.268;2023-11-21T02:56:34;100734.97;;;13.88;100.00
33404;BME280;19751;40.274;18.268;2023-11-21T02:59:00;100736.66;;;13.89;100.00
33404;BME280;19751;40.274;18.268;2023-11-21T03:01:26;100732.06;;;13.90;100.00
33404;BME280;19751;40.274;18.268;2023-11-21T03:03:52;100738.72;;;13.94;100.00
33404;BME280;19751;40.274;18.268;2023-11-21T03:06:19;100727.25;;;13.99;100.00
33404;BME280;19751;40.274;18.268;2023-11-21T03:08:45;100727.44;;;14.04;100.00
33404;BME280;19751;40.274;18.268;2023-11-21T03:11:10;100725.53;;;14.11;100.00
33404;BME280;19751;40.274;18.268;2023-11-21T03:13:36;100724.03;;;14.22;100.00
33404;BME280;19751;40.274;18.268;2023-11-21T03:16:02;100720.91;;;14.31;100.00
33404;BME280;19751;40.274;18.268;2023-11-21T03:18:27;100724.78;;;14.42;100.00
33404;BME280;19751;40.274;18.268;2023-11-21T03:20:54;100717.28;;;14.51;100.00
33404;BME280;19751;40.274;18.268;2023-11-21T03:23:20;100722.69;;;14.57;100.00
33404;BME280;19751;40.274;18.268;2023-11-21T03:25:46;100708.06;;;14.65;100.00
33404;BME280;19751;40.274;18.268;2023-11-21T03:28:11;100706.75;;;14.67;100.00
33404;BME280;19751;40.274;18.268;2023-11-21T03:30:36;100701.97;;;14.70;100.00
33404;BME280;19751;40.274;18.268;2023-11-21T03:33:02;100709.28;;;14.69;100.00
33404;BME280;19751;40.274;18.268;2023-11-21T03:35:27;100707.00;;;14.66;100.00
33404;BME280;19751;40.274;18.268;2023-11-21T03:37:53;100697.81;;;14.67;100.00
33404;BME280;19751;40.274;18.268;2023-11-21T03:40:19;100700.50;;;14.67;100.00
33404;BME280;19751;40.274;18.268;2023-11-21T03:42:46;100699.50;;;14.68;100.00
33404;BME280;19751;40.274;18.268;2023-11-21T03:45:12;100696.78;;;14.68;100.00
33404;BME280;19751;40.274;18.268;2023-11-21T03:47:42;100696.56;;;14.70;100.00
33404;BME280;19751;40.274;18.268;2023-11-21T03:50:08;100696.13;;;14.73;100.00
33404;BME280;19751;40.274;18.268;2023-11-21T03:52:34;100694.25;;;14.73;100.00
33404;BME280;19751;40.274;18.268;2023-11-21T03:55:01;100687.75;;;14.74;100.00
33404;BME280;19751;40.274;18.268;2023-11-21T03:57:27;100690.47;;;14.74;100.00
33404;BME280;19751;40.274;18.268;2023-11-21T03:59:55;100679.84;;;14.73;100.00
33404;BME280;19751;40.274;18.268;2023-11-21T04:02:20;100679.00;;;14.72;100.00
33404;BME280;19751;40.274;18.268;2023-11-21T04:04:46;100674.63;;;14.71;100.00
33404;BME280;19751;40.274;18.268;2023-11-21T04:07:12;100689.25;;;14.70;100.00
33404;BME280;19751;40.274;18.268;2023-11-21T04:09:39;100681.13;;;14.70;100.00
33404;BME280;19751;40.274;18.268;2023-11-21T04:12:05;100677.56;;;14.70;100.00
33404;BME280;19751;40.274;18.268;2023-11-21T04:14:30;100677.81;;;14.68;100.00
33404;BME280;19751;40.274;18.268;2023-11-21T04:16:57;100678.81;;;14.67;100.00
33404;BME280;19751;40.274;18.268;2023-11-21T04:19:22;100679.88;;;14.66;100.00
33404;BME280;19751;40.274;18.268;2023-11-21T04:21:48;100673.88;;;14.64;100.00
33404;BME280;19751;40.274;18.268;2023-11-21T04:24:13;100673.00;;;14.63;100.00
33404;BME280;19751;40.274;18.268;2023-11-21T04:26:39;100675.13;;;14.61;100.00
33404;BME280;19751;40.274;18.268;2023-11-21T04:29:04;100674.28;;;14.61;100.00
33404;BME280;19751;40.274;18.268;2023-11-21T04:31:30;100677.00;;;14.61;100.00
33404;BME280;19751;40.274;18.268;2023-11-21T04:33:56;100674.28;;;14.61;100.00
33404;BME280;19751;40.274;18.268;2023-11-21T04:36:21;100674.28;;;14.61;100.00
33404;BME280;19751;40.274;18.268;2023-11-21T04:38:47;100671.59;;;14.61;100.00
33404;BME280;19751;40.274;18.268;2023-11-21T04:41:12;100672.63;;;14.60;100.00
33404;BME280;19751;40.274;18.268;2023-11-21T04:43:38;100670.13;;;14.58;100.00
33404;BME280;19751;40.274;18.268;2023-11-21T04:46:03;100677.19;;;14.59;100.00
33404;BME280;19751;40.274;18.268;2023-11-21T04:48:29;100675.78;;;14.57;100.00
33404;BME280;19751;40.274;18.268;2023-11-21T04:50:54;100670.94;;;14.59;100.00
33404;BME280;19751;40.274;18.268;2023-11-21T04:53:20;100668.25;;;14.59;100.00
33404;BME280;19751;40.274;18.268;2023-11-21T04:55:45;100665.53;;;14.59;100.00
33404;BME280;19751;40.274;18.268;2023-11-21T04:58:12;100672.84;;;14.58;100.00
33404;BME280;19751;40.274;18.268;2023-11-21T05:00:37;100673.66;;;14.59;100.00
33404;BME280;19751;40.274;18.268;2023-11-21T05:03:03;100668.88;;;14.61;100.00
33404;BME280;19751;40.274;18.268;2023-11-21T05:05:30;100671.59;;;14.61;100.00
33404;BME280;19751;40.274;18.268;2023-11-21T05:07:55;100667.22;;;14.60;100.00
33404;BME280;19751;40.274;18.268;2023-11-21T05:10:21;100668.25;;;14.59;100.00
33404;BME280;19751;40.274;18.268;2023-11-21T05:12:49;100668.88;;;14.61;100.00
33404;BME280;19751;40.274;18.268;2023-11-21T05:15:16;100671.59;;;14.61;100.00
33404;BME280;19751;40.274;18.268;2023-11-21T05:17:45;100661.34;;;14.63;100.00
33404;BME280;19751;40.274;18.268;2023-11-21T05:20:14;100669.69;;;14.61;100.00
33404;BME280;19751;40.274;18.268;2023-11-21T05:22:43;100661.78;;;14.60;100.00
33404;BME280;19751;40.274;18.268;2023-11-21T05:25:09;100654.69;;;14.59;100.00
33404;BME280;19751;40.274;18.268;2023-11-21T05:27:35;100663.06;;;14.57;100.00
33404;BME280;19751;40.274;18.268;2023-11-21T05:30:04;100654.09;;;14.57;100.00
33404;BME280;19751;40.274;18.268;2023-11-21T05:32:31;100664.69;;;14.58;100.00
33404;BME280;19751;40.274;18.268;2023-11-21T05:34:56;100660.09;;;14.59;100.00
33404;BME280;19751;40.274;18.268;2023-11-21T05:37:22;100659.69;;;14.62;100.00
33404;BME280;19751;40.274;18.268;2023-11-21T05:39:49;100656.75;;;14.63;100.00
33404;BME280;19751;40.274;18.268;2023-11-21T05:42:14;100660.91;;;14.66;100.00
33404;BME280;19751;40.274;18.268;2023-11-21T05:44:43;100653.84;;;14.65;100.00
33404;BME280;19751;40.274;18.268;2023-11-21T05:47:09;100656.31;;;14.66;100.00
33404;BME280;19751;40.274;18.268;2023-11-21T05:49:35;100660.91;;;14.66;100.00
33404;BME280;19751;40.274;18.268;2023-11-21T05:52:01;100660.91;;;14.66;100.00
33404;BME280;19751;40.274;18.268;2023-11-21T05:54:26;100665.28;;;14.67;100.00
33404;BME280;19751;40.274;18.268;2023-11-21T05:56:52;100668.81;;;14.67;100.00
33404;BME280;19751;40.274;18.268;2023-11-21T05:59:18;100665.28;;;14.67;100.00
33404;BME280;19751;40.274;18.268;2023-11-21T06:01:43;100663.19;;;14.69;100.00
33404;BME280;19751;40.274;18.268;2023-11-21T06:04:11;100669.44;;;14.70;100.00
33404;BME280;19751;40.274;18.268;2023-11-21T06:06:36;100666.72;;;14.70;100.00
33404;BME280;19751;40.274;18.268;2023-11-21T06:09:02;100666.50;;;14.71;100.00
33404;BME280;19751;40.274;18.268;2023-11-21T06:11:27;100669.22;;;14.71;100.00
33404;BME280;19751;40.274;18.268;2023-11-21T06:13:53;100663.78;;;14.71;100.00
33404;BME280;19751;40.274;18.268;2023-11-21T06:16:19;100676.50;;;14.71;100.00
33404;BME280;19751;40.274;18.268;2023-11-21T06:18:47;100660.47;;;14.69;100.00
33404;BME280;19751;40.274;18.268;2023-11-21T06:21:13;100668.38;;;14.71;100.00
33404;BME280;19751;40.274;18.268;2023-11-21T06:23:39;100668.38;;;14.71;100.00
33404;BME280;19751;40.274;18.268;2023-11-21T06:26:05;100667.13;;;14.73;100.00
33404;BME280;19751;40.274;18.268;2023-11-21T06:28:31;100667.97;;;14.74;100.00
33404;BME280;19751;40.274;18.268;2023-11-21T06:30:57;100675.84;;;14.75;100.00
33404;BME280;19751;40.274;18.268;2023-11-21T06:33:31;100679.19;;;14.77;100.00
33404;BME280;19751;40.274;18.268;2023-11-21T06:35:57;100673.31;;;14.80;100.00
33404;BME280;19751;40.274;18.268;2023-11-21T06:38:22;100671.22;;;14.82;100.00
33404;BME280;19751;40.274;18.268;2023-11-21T06:40:48;100669.13;;;14.84;100.00
33404;BME280;19751;40.274;18.268;2023-11-21T06:43:13;100675.41;;;14.85;100.00
33404;BME280;19751;40.274;18.268;2023-11-21T06:45:40;100668.09;;;14.85;100.00
33404;BME280;19751;40.274;18.268;2023-11-21T06:48:06;100672.03;;;14.89;100.00
33404;BME280;19751;40.274;18.268;2023-11-21T06:50:31;100669.31;;;14.89;100.00
33404;BME280;19751;40.274;18.268;2023-11-21T06:52:57;100666.38;;;14.91;100.00
33404;BME280;19751;40.274;18.268;2023-11-21T06:55:22;100660.50;;;14.94;100.00
33404;BME280;19751;40.274;18.268;2023-11-21T06:57:48;100658.63;;;14.95;100.00
33404;BME280;19751;40.274;18.268;2023-11-21T07:00:15;100653.59;;;14.98;100.00
33404;BME280;19751;40.274;18.268;2023-11-21T07:02:43;100664.38;;;15.05;100.00
33404;BME280;19751;40.274;18.268;2023-11-21T07:05:09;100654.31;;;15.12;100.00
33404;BME280;19751;40.274;18.268;2023-11-21T07:07:35;100653.44;;;15.18;100.00
33404;BME280;19751;40.274;18.268;2023-11-21T07:10:03;100656.91;;;15.25;100.00
33404;BME280;19751;40.274;18.268;2023-11-21T07:12:30;100652.03;;;15.34;100.00
33404;BME280;19751;40.274;18.268;2023-11-21T07:14:57;100655.53;;;15.41;100.00
33404;BME280;19751;40.274;18.268;2023-11-21T07:17:23;100652.75;;;15.48;100.00
33404;BME280;19751;40.274;18.268;2023-11-21T07:19:49;100654.16;;;15.50;100.00
33404;BME280;19751;40.274;18.268;2023-11-21T07:22:15;100655.78;;;15.58;100.00
33404;BME280;19751;40.274;18.268;2023-11-21T07:24:48;100651.13;;;15.65;100.00
33404;BME280;19751;40.274;18.268;2023-11-21T07:27:17;100644.78;;;15.71;100.00
33404;BME280;19751;40.274;18.268;2023-11-21T07:29:43;100642.47;;;15.75;100.00
33404;BME280;19751;40.274;18.268;2023-11-21T07:32:09;100643.66;;;15.79;100.00
33404;BME280;19751;40.274;18.268;2023-11-21T07:34:35;100644.06;;;15.82;100.00
33404;BME280;19751;40.274;18.268;2023-11-21T07:37:01;100642.78;;;15.85;100.00
33404;BME280;19751;40.274;18.268;2023-11-21T07:39:28;100646.72;;;15.89;100.00
33404;BME280;19751;40.274;18.268;2023-11-21T07:41:53;100646.03;;;15.94;100.00
33404;BME280;19751;40.274;18.268;2023-11-21T07:44:19;100641.56;;;15.99;100.00
33404;BME280;19751;40.274;18.268;2023-11-21T07:46:45;100635.00;;;16.07;100.00
33404;BME280;19751;40.274;18.268;2023-11-21T07:49:11;100636.19;;;16.11;100.00
33404;BME280;19751;40.274;18.268;2023-11-21T07:51:37;100625.47;;;16.16;100.00
33404;BME280;19751;40.274;18.268;2023-11-21T07:54:03;100628.31;;;16.21;100.00
33404;BME280;19751;40.274;18.268;2023-11-21T07:56:28;100632.22;;;16.25;100.00
33404;BME280;19751;40.274;18.268;2023-11-21T07:58:54;100632.16;;;16.32;100.00
33404;BME280;19751;40.274;18.268;2023-11-21T08:01:19;100627.47;;;16.39;100.00
33404;BME280;19751;40.274;18.268;2023-11-21T08:03:45;100619.19;;;16.46;100.00
33404;BME280;19751;40.274;18.268;2023-11-21T08:06:10;100618.28;;;16.52;100.00
33404;BME280;19751;40.274;18.268;2023-11-21T08:08:36;100621.97;;;16.57;100.00
33404;BME280;19751;40.274;18.268;2023-11-21T08:11:01;100614.41;;;16.59;100.00
33404;BME280;19751;40.274;18.268;2023-11-21T08:13:29;100610.38;;;16.62;100.00
33404;BME280;19751;40.274;18.268;2023-11-21T08:15:58;100608.84;;;16.66;100.00
33404;BME280;19751;40.274;18.268;2023-11-21T08:18:32;100602.34;;;16.67;100.00
33404;BME280;19751;40.274;18.268;2023-11-21T08:20:59;100604.41;;;16.72;100.00
33404;BME280;19751;40.274;18.268;2023-11-21T08:23:25;100608.47;;;16.81;100.00
33404;BME280;19751;40.274;18.268;2023-11-21T08:25:52;100608.94;;;16.89;100.00
33404;BME280;19751;40.274;18.268;2023-11-21T08:28:18;100599.84;;;16.96;100.00
33404;BME280;19751;40.274;18.268;2023-11-21T08:30:44;100604.00;;;16.98;100.00
33404;BME280;19751;40.274;18.268;2023-11-21T08:33:09;100596.19;;;17.02;100.00
33404;BME280;19751;40.274;18.268;2023-11-21T08:35:37;100595.47;;;17.06;100.00
33404;BME280;19751;40.274;18.268;2023-11-21T08:38:03;100589.78;;;17.08;100.00
33404;BME280;19751;40.274;18.268;2023-11-21T08:40:29;100599.75;;;17.14;100.00
33404;BME280;19751;40.274;18.268;2023-11-21T08:42:55;100583.28;;;17.21;100.00
33404;BME280;19751;40.274;18.268;2023-11-21T08:45:25;100579.03;;;17.25;100.00
33404;BME280;19751;40.274;18.268;2023-11-21T08:47:53;100583.28;;;17.32;100.00
33404;BME280;19751;40.274;18.268;2023-11-21T08:50:19;100579.03;;;17.36;100.00
33404;BME280;19751;40.274;18.268;2023-11-21T08:52:45;100575.22;;;17.37;100.00
33404;BME280;19751;40.274;18.268;2023-11-21T08:55:13;100574.41;;;17.37;100.00
33404;BME280;19751;40.274;18.268;2023-11-21T08:57:40;100579.63;;;17.38;100.00
33404;BME280;19751;40.274;18.268;2023-11-21T09:00:07;100570.97;;;17.42;100.00
33404;BME280;19751;40.274;18.268;2023-11-21T09:02:37;100574.28;;;17.44;100.00
33404;BME280;19751;40.274;18.268;2023-11-21T09:05:06;100568.38;;;17.47;100.00
33404;BME280;19751;40.274;18.268;2023-11-21T09:07:32;100563.03;;;17.52;100.00
33404;BME280;19751;40.274;18.268;2023-11-21T09:09:58;100564.56;;;17.59;100.00
33404;BME280;19751;40.274;18.268;2023-11-21T09:12:24;100563.84;;;17.64;100.00
33404;BME280;19751;40.274;18.268;2023-11-21T09:14:52;100555.19;;;17.67;100.00
33404;BME280;19751;40.274;18.268;2023-11-21T09:17:17;100551.50;;;17.73;100.00
33404;BME280;19751;40.274;18.268;2023-11-21T09:19:44;100546.50;;;17.82;100.00
33404;BME280;19751;40.274;18.268;2023-11-21T09:22:12;100541.03;;;17.94;100.00
33404;BME280;19751;40.274;18.268;2023-11-21T09:24:38;100532.47;;;18.02;100.00
33404;BME280;19751;40.274;18.268;2023-11-21T09:27:03;100525.81;;;18.09;100.00
33404;BME280;19751;40.274;18.268;2023-11-21T09:29:30;100520.28;;;18.21;100.00
33404;BME280;19751;40.274;18.268;2023-11-21T09:31:57;100515.00;;;18.31;100.00
33404;BME280;19751;40.274;18.268;2023-11-21T09:34:25;100512.69;;;18.40;100.00
33404;BME280;19751;40.274;18.268;2023-11-21T09:36:51;100512.56;;;18.47;100.00
33404;BME280;19751;40.274;18.268;2023-11-21T09:39:17;100494.03;;;18.49;100.00
33404;BME280;19751;40.274;18.268;2023-11-21T09:41:46;100495.19;;;18.53;100.00
33404;BME280;19751;40.274;18.268;2023-11-21T09:44:18;100492.56;;;18.58;100.00
33404;BME280;19751;40.274;18.268;2023-11-21T09:46:47;100492.63;;;18.63;100.00
33404;BME280;19751;40.274;18.268;2023-11-21T09:49:18;100482.28;;;18.65;100.00
33404;BME280;19751;40.274;18.268;2023-11-21T09:51:45;100478.84;;;18.70;100.00
33404;BME280;19751;40.274;18.268;2023-11-21T09:54:13;100478.34;;;18.73;100.00
33404;BME280;19751;40.274;18.268;2023-11-21T09:56:41;100473.97;;;18.72;100.00
33404;BME280;19751;40.274;18.268;2023-11-21T09:59:11;100475.38;;;18.74;100.00
33404;BME280;19751;40.274;18.268;2023-11-21T10:01:38;100462.66;;;18.80;100.00
33404;BME280;19751;40.274;18.268;2023-11-21T10:04:04;100473.13;;;18.88;100.00
33404;BME280;19751;40.274;18.268;2023-11-21T10:06:38;100456.00;;;18.93;100.00
33404;BME280;19751;40.274;18.268;2023-11-21T10:09:04;100458.25;;;18.96;100.00
33404;BME280;19751;40.274;18.268;2023-11-21T10:11:39;100460.78;;;19.02;100.00
33404;BME280;19751;40.274;18.268;2023-11-21T10:14:08;100453.22;;;19.09;100.00
33404;BME280;19751;40.274;18.268;2023-11-21T10:16:36;100453.88;;;19.17;100.00
33404;BME280;19751;40.274;18.268;2023-11-21T10:19:04;100454.44;;;19.19;100.00
33404;BME280;19751;40.274;18.268;2023-11-21T10:21:32;100448.97;;;19.19;100.00
33404;BME280;19751;40.274;18.268;2023-11-21T10:23:58;100453.06;;;19.16;100.00
33404;BME280;19751;40.274;18.268;2023-11-21T10:26:26;100450.81;;;19.13;100.00
33404;BME280;19751;40.274;18.268;2023-11-21T10:28:59;100440.22;;;19.17;100.00
33404;BME280;19751;40.274;18.268;2023-11-21T10:31:30;100446.56;;;19.22;100.00
33404;BME280;19751;40.274;18.268;2023-11-21T10:34:17;100427.78;;;19.26;100.00
33404;BME280;19751;40.274;18.268;2023-11-21T10:36:43;100425.59;;;19.28;100.00
33404;BME280;19751;40.274;18.268;2023-11-21T10:39:09;100420.13;;;19.28;100.00
33404;BME280;19751;40.274;18.268;2023-11-21T10:41:38;100411.72;;;19.29;100.00
33404;BME280;19751;40.274;18.268;2023-11-21T10:44:05;100409.53;;;19.31;100.00
33404;BME280;19751;40.274;18.268;2023-11-21T10:46:34;100409.59;;;19.36;100.00
33404;BME280;19751;40.274;18.268;2023-11-21T10:49:00;100400.44;;;19.48;100.00
33404;BME280;19751;40.274;18.268;2023-11-21T10:51:26;100390.16;;;19.55;100.00
33404;BME280;19751;40.274;18.268;2023-11-21T10:53:52;100394.84;;;19.59;100.00
33404;BME280;19751;40.274;18.268;2023-11-21T10:56:18;100390.16;;;19.55;100.00
33404;BME280;19751;40.274;18.268;2023-11-21T10:58:45;100389.06;;;19.56;100.00
33404;BME280;19751;40.274;18.268;2023-11-21T11:01:11;100389.63;;;19.58;100.00
33404;BME280;19751;40.274;18.268;2023-11-21T11:03:39;100393.53;;;19.62;100.00
33404;BME280;19751;40.274;18.268;2023-11-21T11:06:07;100388.63;;;19.64;100.00
33404;BME280;19751;40.274;18.268;2023-11-21T11:08:41;100379.25;;;19.60;100.00
33404;BME280;19751;40.274;18.268;2023-11-21T11:11:08;100386.31;;;19.56;100.00
33404;BME280;19751;40.274;18.268;2023-11-21T11:13:35;100379.22;;;19.55;100.00
33404;BME280;19751;40.274;18.268;2023-11-21T11:16:01;100380.94;;;19.61;100.00
33404;BME280;19751;40.274;18.268;2023-11-21T11:18:30;100378.50;;;19.65;100.00
33404;BME280;19751;40.274;18.268;2023-11-21T11:21:17;100372.81;;;19.66;100.00
33404;BME280;19751;40.274;18.268;2023-11-21T11:26:58;100363.00;;;19.70;100.00
33404;BME280;19751;40.274;18.268;2023-11-21T11:35:11;100347.69;;;19.69;100.00
33404;BME280;19751;40.274;18.268;2023-11-21T11:37:43;100340.03;;;19.66;100.00
33404;BME280;19751;40.274;18.268;2023-11-21T11:40:11;100342.69;;;19.61;100.00
33404;BME280;19751;40.274;18.268;2023-11-21T11:42:37;100338.78;;;19.57;100.00
33404;BME280;19751;40.274;18.268;2023-11-21T11:45:17;100334.09;;;19.52;100.00
33404;BME280;19751;40.274;18.268;2023-11-21T11:47:44;100336.53;;;19.49;100.00
33404;BME280;19751;40.274;18.268;2023-11-21T11:50:13;100326.19;;;19.51;100.00
33404;BME280;19751;40.274;18.268;2023-11-21T11:55:12;100339.25;;;19.49;100.00
33404;BME280;19751;40.274;18.268;2023-11-21T11:57:40;100331.06;;;19.49;100.00
33404;BME280;19751;40.274;18.268;2023-11-21T12:00:13;100338.72;;;19.47;100.00
33404;BME280;19751;40.274;18.268;2023-11-21T12:02:44;100330.81;;;19.50;100.00
33404;BME280;19751;40.274;18.268;2023-11-21T12:05:12;100337.16;;;19.56;100.00
33404;BME280;19751;40.274;18.268;2023-11-21T12:10:18;100330.16;;;19.65;100.00
33404;BME280;19751;40.274;18.268;2023-11-21T12:12:48;100327.44;;;19.65;100.00
33404;BME280;19751;40.274;18.268;2023-11-21T12:15:15;100330.44;;;19.64;100.00
33404;BME280;19751;40.274;18.268;2023-11-21T12:17:42;100324.16;;;19.63;100.00
33404;BME280;19751;40.274;18.268;2023-11-21T12:20:09;100322.50;;;19.62;100.00
33404;BME280;19751;40.274;18.268;2023-11-21T12:22:47;100323.81;;;19.59;100.00
33404;BME280;19751;40.274;18.268;2023-11-21T12:25:18;100319.13;;;19.55;100.00
33404;BME280;19751;40.274;18.268;2023-11-21T12:27:48;100316.91;;;19.52;100.00
33404;BME280;19751;40.274;18.268;2023-11-21T12:30:22;100306.19;;;19.45;100.00
33404;BME280;19751;40.274;18.268;2023-11-21T12:32:49;100314.63;;;19.44;100.00
33404;BME280;19751;40.274;18.268;2023-11-21T12:35:17;100308.63;;;19.42;100.00
33404;BME280;19751;40.274;18.268;2023-11-21T12:37:45;100294.66;;;19.38;100.00
33404;BME280;19751;40.274;18.268;2023-11-21T12:40:12;100304.16;;;19.35;100.00
33404;BME280;19751;40.274;18.268;2023-11-21T12:42:45;100306.34;;;19.33;100.00